Cuttyhunk, Massachusetts
Current Conditions -  °F | °C
As of 11:02 AM on Monday 24 Nov 2014 (Local Time) from KMVY Reporting Station
Light Rain Light Rain  
Wind Chill: 59°   Ceiling: 300
Heat Index: 59°   Visibility: 3mi
Dew Point: 59°   Wind: 23mph
Humidity: 100%   Direction: 170°S
Pressure: 29.76"   Gusts: 35mph
Location:  41.42°N, 70.93°W
Report Text: KMVY 241602Z 17020G30KT 3SM -RA BR OVC003 15/15 A2976 RMK AO2 PK WND 19030/1559 P0000 T01500150
Loading
Personal Weather Stations






























Interactive Weather Map New forecast layout! Learn more

10-Day Weather Forecast

Advertisements
Track Severe Weather on mobile